KESN/ESN METAR and TAF weather

Enter ICAO airport designator
Station Type Date Time Source
KESN METAR 2018/12/19 04:17 UTC NOAA

KESN 190417Z AUTO 00000KT 10SM CLR M01/M03 A3022 RMK AO2 T10131032


Station Type Date Time Source
KESN Decoded METAR 2018/12/19 04:17 UTC NOAA

Easton / Newman Field, MD, United States (KESN) 38-48N 076-04W
Dec 18, 2018 - 11:17 PM EST / 2018.12.19 0417 UTC
Wind: Calm:0
Visibility: 10 mile(s):0
Sky conditions: clear
Temperature: 29.7 F (-1.3 C)
Dew Point: 26.2 F (-3.2 C)
Relative Humidity: 86%
Pressure (altimeter): 30.22 in. Hg (1023 hPa)
ob: KESN 190417Z AUTO 00000KT 10SM CLR M01/M03 A3022 RMK AO2 T10131032
cycle: 4

Station Type Date Time Source
KESN TAF UTC NOAA

Error!


Example: see airport list